Terminal Aerodrome Forecast
Issued by NWS Pittsburgh, PA

Home | Current Version | Previous Version | Text Only | Print | Product List | Glossary On
Versions: 1 2 3 4 5 6 7 8 9 10 11 12 13 14 15 16 17 18 19 20 21 22 23 24 25 26 27 28 29 30 31 32
000
FTUS41 KPBZ 040500
TAFPIT
TAF
KPIT 040539Z 0406/0512 26006KT 6SM -RA BR SCT008 BKN025
     FM040700 27008KT 5SM -RA BR OVC007
     FM041200 28005KT 2SM -SN OVC007
     FM041600 29005KT 5SM BR OVC010
     FM050000 32008KT 2SM -SN BR OVC007=

USA.gov is the U.S. government's official web portal to all federal, state and local government web resources and services.